sensor_id;sensor_type;location;lat;lon;timestamp;pressure;altitude;pressure_sealevel;temperature
70050;BMP180;57391;51.306;22.680;2024-02-26T00:01:44;98952.60;;;11.40
70050;BMP180;57391;51.306;22.680;2024-02-26T00:03:45;98954.60;;;11.42
70050;BMP180;57391;51.306;22.680;2024-02-26T00:05:48;98948.20;;;11.44
70050;BMP180;57391;51.306;22.680;2024-02-26T00:07:50;98952.20;;;11.42
70050;BMP180;57391;51.306;22.680;2024-02-26T00:09:52;98949.00;;;11.42
70050;BMP180;57391;51.306;22.680;2024-02-26T00:11:53;98941.60;;;11.40
70050;BMP180;57391;51.306;22.680;2024-02-26T00:13:56;98948.00;;;11.40
70050;BMP180;57391;51.306;22.680;2024-02-26T00:15:59;98937.40;;;11.40
70050;BMP180;57391;51.306;22.680;2024-02-26T00:18:01;98942.00;;;11.40
70050;BMP180;57391;51.306;22.680;2024-02-26T00:20:04;98941.20;;;11.40
70050;BMP180;57391;51.306;22.680;2024-02-26T00:22:09;98936.60;;;11.40
70050;BMP180;57391;51.306;22.680;2024-02-26T00:24:11;98938.00;;;11.40
70050;BMP180;57391;51.306;22.680;2024-02-26T00:26:13;98934.80;;;11.40
70050;BMP180;57391;51.306;22.680;2024-02-26T00:28:14;98931.80;;;11.30
70050;BMP180;57391;51.306;22.680;2024-02-26T00:30:16;98931.60;;;11.30
70050;BMP180;57391;51.306;22.680;2024-02-26T00:32:18;98932.80;;;11.30
70050;BMP180;57391;51.306;22.680;2024-02-26T00:34:20;98935.40;;;11.30
70050;BMP180;57391;51.306;22.680;2024-02-26T00:36:21;98930.20;;;11.30
70050;BMP180;57391;51.306;22.680;2024-02-26T00:38:23;98933.60;;;11.30
70050;BMP180;57391;51.306;22.680;2024-02-26T00:40:25;98932.40;;;11.30
70050;BMP180;57391;51.306;22.680;2024-02-26T00:42:26;98934.00;;;11.30
70050;BMP180;57391;51.306;22.680;2024-02-26T00:44:28;98936.00;;;11.30
70050;BMP180;57391;51.306;22.680;2024-02-26T00:46:30;98934.40;;;11.30
70050;BMP180;57391;51.306;22.680;2024-02-26T00:48:31;98925.60;;;11.30
70050;BMP180;57391;51.306;22.680;2024-02-26T00:50:34;98930.60;;;11.30
70050;BMP180;57391;51.306;22.680;2024-02-26T00:52:36;98926.00;;;11.30
70050;BMP180;57391;51.306;22.680;2024-02-26T00:54:37;98922.00;;;11.30
70050;BMP180;57391;51.306;22.680;2024-02-26T00:56:39;98921.60;;;11.28
70050;BMP180;57391;51.306;22.680;2024-02-26T00:58:41;98921.80;;;11.28
70050;BMP180;57391;51.306;22.680;2024-02-26T01:00:42;98925.80;;;11.20
70050;BMP180;57391;51.306;22.680;2024-02-26T01:02:44;98925.00;;;11.20
70050;BMP180;57391;51.306;22.680;2024-02-26T01:04:49;98923.00;;;11.20
70050;BMP180;57391;51.306;22.680;2024-02-26T01:06:50;98923.80;;;11.16
70050;BMP180;57391;51.306;22.680;2024-02-26T01:08:52;98924.40;;;11.10
70050;BMP180;57391;51.306;22.680;2024-02-26T01:10:54;98918.00;;;11.10
70050;BMP180;57391;51.306;22.680;2024-02-26T01:12:55;98908.60;;;11.10
70050;BMP180;57391;51.306;22.680;2024-02-26T01:14:58;98906.60;;;11.10
70050;BMP180;57391;51.306;22.680;2024-02-26T01:16:59;98903.20;;;11.08
70050;BMP180;57391;51.306;22.680;2024-02-26T01:19:01;98905.60;;;11.04
70050;BMP180;57391;51.306;22.680;2024-02-26T01:21:04;98903.60;;;11.00
70050;BMP180;57391;51.306;22.680;2024-02-26T01:23:10;98901.40;;;11.00
70050;BMP180;57391;51.306;22.680;2024-02-26T01:25:12;98896.40;;;11.00
70050;BMP180;57391;51.306;22.680;2024-02-26T01:27:14;98893.40;;;11.08
70050;BMP180;57391;51.306;22.680;2024-02-26T01:29:17;98892.80;;;11.10
70050;BMP180;57391;51.306;22.680;2024-02-26T01:31:18;98900.60;;;11.10
70050;BMP180;57391;51.306;22.680;2024-02-26T01:33:20;98906.20;;;11.10
70050;BMP180;57391;51.306;22.680;2024-02-26T01:35:22;98902.00;;;11.10
70050;BMP180;57391;51.306;22.680;2024-02-26T01:37:24;98897.60;;;11.06
70050;BMP180;57391;51.306;22.680;2024-02-26T01:39:26;98899.20;;;11.00
70050;BMP180;57391;51.306;22.680;2024-02-26T01:41:30;98890.40;;;11.00
70050;BMP180;57391;51.306;22.680;2024-02-26T01:43:32;98895.00;;;11.00
70050;BMP180;57391;51.306;22.680;2024-02-26T01:45:33;98897.40;;;10.96
70050;BMP180;57391;51.306;22.680;2024-02-26T01:47:35;98896.80;;;10.92
70050;BMP180;57391;51.306;22.680;2024-02-26T01:49:38;98894.80;;;10.98
70050;BMP180;57391;51.306;22.680;2024-02-26T01:51:41;98892.80;;;11.00
70050;BMP180;57391;51.306;22.680;2024-02-26T01:53:45;98898.00;;;11.00
70050;BMP180;57391;51.306;22.680;2024-02-26T01:55:46;98902.80;;;11.00
70050;BMP180;57391;51.306;22.680;2024-02-26T01:57:50;98908.20;;;11.00
70050;BMP180;57391;51.306;22.680;2024-02-26T01:59:54;98908.40;;;11.00
70050;BMP180;57391;51.306;22.680;2024-02-26T02:01:59;98916.00;;;11.00
70050;BMP180;57391;51.306;22.680;2024-02-26T02:04:03;98921.20;;;11.00
70050;BMP180;57391;51.306;22.680;2024-02-26T02:06:05;98925.60;;;11.00
70050;BMP180;57391;51.306;22.680;2024-02-26T02:08:13;98926.40;;;11.00
70050;BMP180;57391;51.306;22.680;2024-02-26T02:10:16;98927.20;;;11.00
70050;BMP180;57391;51.306;22.680;2024-02-26T02:12:19;98926.80;;;11.00
70050;BMP180;57391;51.306;22.680;2024-02-26T02:14:21;98928.40;;;11.00
70050;BMP180;57391;51.306;22.680;2024-02-26T02:16:23;98929.20;;;11.00
70050;BMP180;57391;51.306;22.680;2024-02-26T02:18:25;98924.00;;;11.00
70050;BMP180;57391;51.306;22.680;2024-02-26T02:20:34;98918.00;;;11.00
70050;BMP180;57391;51.306;22.680;2024-02-26T02:22:36;98921.20;;;11.00
70050;BMP180;57391;51.306;22.680;2024-02-26T02:24:38;98923.00;;;11.00
70050;BMP180;57391;51.306;22.680;2024-02-26T02:26:39;98916.00;;;11.00
70050;BMP180;57391;51.306;22.680;2024-02-26T02:28:41;98916.60;;;11.00
70050;BMP180;57391;51.306;22.680;2024-02-26T02:30:43;98917.80;;;11.00
70050;BMP180;57391;51.306;22.680;2024-02-26T02:32:45;98915.80;;;11.00
70050;BMP180;57391;51.306;22.680;2024-02-26T02:34:47;98910.40;;;11.00
70050;BMP180;57391;51.306;22.680;2024-02-26T02:36:52;98911.40;;;11.00
70050;BMP180;57391;51.306;22.680;2024-02-26T02:38:54;98915.80;;;11.00
70050;BMP180;57391;51.306;22.680;2024-02-26T02:40:56;98918.80;;;11.00
70050;BMP180;57391;51.306;22.680;2024-02-26T02:42:58;98915.00;;;10.94
70050;BMP180;57391;51.306;22.680;2024-02-26T02:45:01;98920.00;;;10.90
70050;BMP180;57391;51.306;22.680;2024-02-26T02:47:03;98914.80;;;10.90
70050;BMP180;57391;51.306;22.680;2024-02-26T02:49:09;98908.40;;;10.90
70050;BMP180;57391;51.306;22.680;2024-02-26T02:51:11;98915.20;;;10.90
70050;BMP180;57391;51.306;22.680;2024-02-26T02:53:13;98918.60;;;10.90
70050;BMP180;57391;51.306;22.680;2024-02-26T02:55:18;98922.00;;;10.90
70050;BMP180;57391;51.306;22.680;2024-02-26T02:57:19;98924.60;;;10.90
70050;BMP180;57391;51.306;22.680;2024-02-26T02:59:21;98922.80;;;10.90
70050;BMP180;57391;51.306;22.680;2024-02-26T03:01:23;98925.40;;;10.90
70050;BMP180;57391;51.306;22.680;2024-02-26T03:03:25;98918.60;;;10.90
70050;BMP180;57391;51.306;22.680;2024-02-26T03:05:27;98921.00;;;10.82
70050;BMP180;57391;51.306;22.680;2024-02-26T03:07:29;98921.20;;;10.80
70050;BMP180;57391;51.306;22.680;2024-02-26T03:09:31;98916.40;;;10.80
70050;BMP180;57391;51.306;22.680;2024-02-26T03:11:32;98921.60;;;10.78
70050;BMP180;57391;51.306;22.680;2024-02-26T03:13:34;98921.00;;;10.74
70050;BMP180;57391;51.306;22.680;2024-02-26T03:15:36;98921.00;;;10.72
70050;BMP180;57391;51.306;22.680;2024-02-26T03:17:37;98923.00;;;10.70
70050;BMP180;57391;51.306;22.680;2024-02-26T03:19:39;98927.80;;;10.70
70050;BMP180;57391;51.306;22.680;2024-02-26T03:21:41;98931.80;;;10.70
70050;BMP180;57391;51.306;22.680;2024-02-26T03:23:43;98933.20;;;10.72
70050;BMP180;57391;51.306;22.680;2024-02-26T03:25:45;98938.20;;;10.78
70050;BMP180;57391;51.306;22.680;2024-02-26T03:27:49;98934.00;;;10.80
70050;BMP180;57391;51.306;22.680;2024-02-26T03:29:51;98939.20;;;10.80
70050;BMP180;57391;51.306;22.680;2024-02-26T03:31:54;98937.00;;;10.78
70050;BMP180;57391;51.306;22.680;2024-02-26T03:33:55;98941.60;;;10.80
70050;BMP180;57391;51.306;22.680;2024-02-26T03:35:57;98942.60;;;10.80
70050;BMP180;57391;51.306;22.680;2024-02-26T03:37:59;98944.20;;;10.74
70050;BMP180;57391;51.306;22.680;2024-02-26T03:40:01;98938.00;;;10.70
70050;BMP180;57391;51.306;22.680;2024-02-26T03:42:03;98940.20;;;10.70
70050;BMP180;57391;51.306;22.680;2024-02-26T03:44:05;98944.40;;;10.70
70050;BMP180;57391;51.306;22.680;2024-02-26T03:46:07;98944.20;;;10.70
70050;BMP180;57391;51.306;22.680;2024-02-26T03:48:10;98945.80;;;10.70
70050;BMP180;57391;51.306;22.680;2024-02-26T03:50:12;98945.40;;;10.64
70050;BMP180;57391;51.306;22.680;2024-02-26T03:52:13;98945.60;;;10.60
70050;BMP180;57391;51.306;22.680;2024-02-26T03:54:16;98937.20;;;10.64
70050;BMP180;57391;51.306;22.680;2024-02-26T03:56:18;98928.60;;;10.60
70050;BMP180;57391;51.306;22.680;2024-02-26T03:58:20;98927.60;;;10.60
70050;BMP180;57391;51.306;22.680;2024-02-26T04:00:22;98931.40;;;10.60
70050;BMP180;57391;51.306;22.680;2024-02-26T04:02:24;98929.40;;;10.60
70050;BMP180;57391;51.306;22.680;2024-02-26T04:04:26;98934.40;;;10.60
70050;BMP180;57391;51.306;22.680;2024-02-26T04:06:28;98928.40;;;10.60
70050;BMP180;57391;51.306;22.680;2024-02-26T04:08:30;98925.60;;;10.60
70050;BMP180;57391;51.306;22.680;2024-02-26T04:10:33;98926.60;;;10.60
70050;BMP180;57391;51.306;22.680;2024-02-26T04:12:41;98932.00;;;10.60
70050;BMP180;57391;51.306;22.680;2024-02-26T04:14:43;98930.00;;;10.60
70050;BMP180;57391;51.306;22.680;2024-02-26T04:16:45;98934.60;;;10.60
70050;BMP180;57391;51.306;22.680;2024-02-26T04:18:47;98940.60;;;10.60
70050;BMP180;57391;51.306;22.680;2024-02-26T04:20:49;98940.20;;;10.60
70050;BMP180;57391;51.306;22.680;2024-02-26T04:22:53;98932.40;;;10.60
70050;BMP180;57391;51.306;22.680;2024-02-26T04:24:54;98933.80;;;10.60
70050;BMP180;57391;51.306;22.680;2024-02-26T04:26:56;98937.60;;;10.60
70050;BMP180;57391;51.306;22.680;2024-02-26T04:28:58;98938.20;;;10.60
70050;BMP180;57391;51.306;22.680;2024-02-26T04:31:00;98944.80;;;10.60
70050;BMP180;57391;51.306;22.680;2024-02-26T04:33:02;98947.20;;;10.60
70050;BMP180;57391;51.306;22.680;2024-02-26T04:35:04;98944.60;;;10.60
70050;BMP180;57391;51.306;22.680;2024-02-26T04:37:06;98941.20;;;10.60
70050;BMP180;57391;51.306;22.680;2024-02-26T04:39:09;98938.40;;;10.60
70050;BMP180;57391;51.306;22.680;2024-02-26T04:41:11;98944.20;;;10.60
70050;BMP180;57391;51.306;22.680;2024-02-26T04:43:13;98945.20;;;10.60
70050;BMP180;57391;51.306;22.680;2024-02-26T04:45:15;98942.00;;;10.60
70050;BMP180;57391;51.306;22.680;2024-02-26T04:47:17;98936.00;;;10.54
70050;BMP180;57391;51.306;22.680;2024-02-26T04:49:19;98935.00;;;10.50
70050;BMP180;57391;51.306;22.680;2024-02-26T04:51:21;98930.80;;;10.50
70050;BMP180;57391;51.306;22.680;2024-02-26T04:53:22;98936.20;;;10.50
70050;BMP180;57391;51.306;22.680;2024-02-26T04:55:24;98941.00;;;10.50
70050;BMP180;57391;51.306;22.680;2024-02-26T04:57:26;98935.60;;;10.50
70050;BMP180;57391;51.306;22.680;2024-02-26T04:59:28;98929.60;;;10.50
70050;BMP180;57391;51.306;22.680;2024-02-26T05:01:30;98920.00;;;10.50
70050;BMP180;57391;51.306;22.680;2024-02-26T05:03:32;98924.80;;;10.50
70050;BMP180;57391;51.306;22.680;2024-02-26T05:05:38;98922.40;;;10.56
70050;BMP180;57391;51.306;22.680;2024-02-26T05:07:41;98930.00;;;10.56
70050;BMP180;57391;51.306;22.680;2024-02-26T05:09:46;98929.40;;;10.50
70050;BMP180;57391;51.306;22.680;2024-02-26T05:11:51;98930.00;;;10.50
70050;BMP180;57391;51.306;22.680;2024-02-26T05:13:52;98932.00;;;10.50
70050;BMP180;57391;51.306;22.680;2024-02-26T05:15:56;98930.80;;;10.50
70050;BMP180;57391;51.306;22.680;2024-02-26T05:17:58;98945.00;;;10.50
70050;BMP180;57391;51.306;22.680;2024-02-26T05:20:00;98946.60;;;10.52
70050;BMP180;57391;51.306;22.680;2024-02-26T05:22:02;98943.40;;;10.54
70050;BMP180;57391;51.306;22.680;2024-02-26T05:24:04;98942.40;;;10.54
70050;BMP180;57391;51.306;22.680;2024-02-26T05:26:06;98945.40;;;10.56
70050;BMP180;57391;51.306;22.680;2024-02-26T05:28:08;98948.80;;;10.58
70050;BMP180;57391;51.306;22.680;2024-02-26T05:30:11;98957.60;;;10.60
70050;BMP180;57391;51.306;22.680;2024-02-26T05:32:13;98960.80;;;10.60
70050;BMP180;57391;51.306;22.680;2024-02-26T05:34:14;98953.60;;;10.60
70050;BMP180;57391;51.306;22.680;2024-02-26T05:36:23;98946.20;;;10.60
70050;BMP180;57391;51.306;22.680;2024-02-26T05:38:25;98947.60;;;10.60
70050;BMP180;57391;51.306;22.680;2024-02-26T05:40:27;98952.00;;;10.60
70050;BMP180;57391;51.306;22.680;2024-02-26T05:42:29;98955.20;;;10.60
70050;BMP180;57391;51.306;22.680;2024-02-26T05:44:31;98959.20;;;10.60
70050;BMP180;57391;51.306;22.680;2024-02-26T05:46:32;98957.80;;;10.54
70050;BMP180;57391;51.306;22.680;2024-02-26T05:48:34;98960.00;;;10.50
70050;BMP180;57391;51.306;22.680;2024-02-26T05:50:38;98960.80;;;10.50
70050;BMP180;57391;51.306;22.680;2024-02-26T05:52:42;98966.20;;;10.50
70050;BMP180;57391;51.306;22.680;2024-02-26T05:54:44;98957.40;;;10.50
70050;BMP180;57391;51.306;22.680;2024-02-26T05:56:46;98963.60;;;10.50
70050;BMP180;57391;51.306;22.680;2024-02-26T05:58:47;98964.20;;;10.50
70050;BMP180;57391;51.306;22.680;2024-02-26T06:00:49;98971.20;;;10.50
70050;BMP180;57391;51.306;22.680;2024-02-26T06:02:51;98976.20;;;10.60
70050;BMP180;57391;51.306;22.680;2024-02-26T06:04:52;98975.60;;;10.60
70050;BMP180;57391;51.306;22.680;2024-02-26T06:06:54;98973.40;;;10.60
70050;BMP180;57391;51.306;22.680;2024-02-26T06:08:56;98970.60;;;10.60
70050;BMP180;57391;51.306;22.680;2024-02-26T06:10:57;98970.40;;;10.60
70050;BMP180;57391;51.306;22.680;2024-02-26T06:12:59;98970.40;;;10.58
70050;BMP180;57391;51.306;22.680;2024-02-26T06:15:01;98974.00;;;10.60
70050;BMP180;57391;51.306;22.680;2024-02-26T06:17:03;98969.60;;;10.50
70050;BMP180;57391;51.306;22.680;2024-02-26T06:19:05;98973.00;;;10.50
70050;BMP180;57391;51.306;22.680;2024-02-26T06:21:10;98983.20;;;10.50
70050;BMP180;57391;51.306;22.680;2024-02-26T06:23:12;98979.00;;;10.50
70050;BMP180;57391;51.306;22.680;2024-02-26T06:25:14;98981.60;;;10.50
70050;BMP180;57391;51.306;22.680;2024-02-26T06:27:15;98981.80;;;10.50
70050;BMP180;57391;51.306;22.680;2024-02-26T06:29:17;98985.60;;;10.44
70050;BMP180;57391;51.306;22.680;2024-02-26T06:31:19;98983.40;;;10.40
70050;BMP180;57391;51.306;22.680;2024-02-26T06:33:21;98981.80;;;10.40
70050;BMP180;57391;51.306;22.680;2024-02-26T06:35:22;98980.80;;;10.40
70050;BMP180;57391;51.306;22.680;2024-02-26T06:37:24;98981.00;;;10.40
70050;BMP180;57391;51.306;22.680;2024-02-26T06:39:26;98984.20;;;10.40
70050;BMP180;57391;51.306;22.680;2024-02-26T06:41:28;98988.80;;;10.40
70050;BMP180;57391;51.306;22.680;2024-02-26T06:43:31;98983.00;;;10.40
70050;BMP180;57391;51.306;22.680;2024-02-26T06:45:33;98981.60;;;10.40
70050;BMP180;57391;51.306;22.680;2024-02-26T06:47:35;98985.60;;;10.40
70050;BMP180;57391;51.306;22.680;2024-02-26T06:49:38;98989.20;;;10.40
70050;BMP180;57391;51.306;22.680;2024-02-26T06:51:39;98986.60;;;10.40
70050;BMP180;57391;51.306;22.680;2024-02-26T06:53:41;98982.60;;;10.40
70050;BMP180;57391;51.306;22.680;2024-02-26T06:55:43;98984.00;;;10.40
70050;BMP180;57391;51.306;22.680;2024-02-26T06:57:45;98988.60;;;10.38
70050;BMP180;57391;51.306;22.680;2024-02-26T06:59:47;98984.40;;;10.40
70050;BMP180;57391;51.306;22.680;2024-02-26T07:01:48;98995.00;;;10.40
70050;BMP180;57391;51.306;22.680;2024-02-26T07:03:50;98996.40;;;10.40
70050;BMP180;57391;51.306;22.680;2024-02-26T07:05:52;98998.40;;;10.42
70050;BMP180;57391;51.306;22.680;2024-02-26T07:07:54;99002.60;;;10.50
70050;BMP180;57391;51.306;22.680;2024-02-26T07:09:56;98998.20;;;10.50
70050;BMP180;57391;51.306;22.680;2024-02-26T07:11:57;98994.20;;;10.50
70050;BMP180;57391;51.306;22.680;2024-02-26T07:13:59;98993.60;;;10.50
70050;BMP180;57391;51.306;22.680;2024-02-26T07:16:03;98997.60;;;10.50
70050;BMP180;57391;51.306;22.680;2024-02-26T07:18:05;99000.60;;;10.54
70050;BMP180;57391;51.306;22.680;2024-02-26T07:20:09;99004.40;;;10.50
70050;BMP180;57391;51.306;22.680;2024-02-26T07:22:10;99003.40;;;10.50
70050;BMP180;57391;51.306;22.680;2024-02-26T07:24:12;99004.40;;;10.50
70050;BMP180;57391;51.306;22.680;2024-02-26T07:26:14;99005.00;;;10.50
70050;BMP180;57391;51.306;22.680;2024-02-26T07:28:19;99010.00;;;10.50
70050;BMP180;57391;51.306;22.680;2024-02-26T07:30:21;99011.20;;;10.50
70050;BMP180;57391;51.306;22.680;2024-02-26T07:32:22;99009.80;;;10.50
70050;BMP180;57391;51.306;22.680;2024-02-26T07:34:24;99012.60;;;10.50
70050;BMP180;57391;51.306;22.680;2024-02-26T07:36:30;99011.40;;;10.50
70050;BMP180;57391;51.306;22.680;2024-02-26T07:38:32;99010.80;;;10.50
70050;BMP180;57391;51.306;22.680;2024-02-26T07:40:33;99013.60;;;10.50
70050;BMP180;57391;51.306;22.680;2024-02-26T07:42:35;99013.00;;;10.58
70050;BMP180;57391;51.306;22.680;2024-02-26T07:44:37;99004.80;;;10.60
70050;BMP180;57391;51.306;22.680;2024-02-26T07:46:39;99004.00;;;10.60
70050;BMP180;57391;51.306;22.680;2024-02-26T07:48:41;99011.20;;;10.70
70050;BMP180;57391;51.306;22.680;2024-02-26T07:50:43;99011.40;;;10.70
70050;BMP180;57391;51.306;22.680;2024-02-26T07:52:45;99012.00;;;10.70
70050;BMP180;57391;51.306;22.680;2024-02-26T07:54:47;99011.00;;;10.78
70050;BMP180;57391;51.306;22.680;2024-02-26T07:56:48;99012.40;;;10.80
70050;BMP180;57391;51.306;22.680;2024-02-26T07:58:50;99017.80;;;10.80
70050;BMP180;57391;51.306;22.680;2024-02-26T08:00:52;99013.60;;;10.80
70050;BMP180;57391;51.306;22.680;2024-02-26T08:02:53;99017.20;;;10.82
70050;BMP180;57391;51.306;22.680;2024-02-26T08:04:55;99012.00;;;10.90
70050;BMP180;57391;51.306;22.680;2024-02-26T08:06:57;99018.00;;;10.90
70050;BMP180;57391;51.306;22.680;2024-02-26T08:08:58;99012.60;;;11.00
70050;BMP180;57391;51.306;22.680;2024-02-26T08:11:00;99013.40;;;11.00
70050;BMP180;57391;51.306;22.680;2024-02-26T08:13:02;99016.20;;;11.00
70050;BMP180;57391;51.306;22.680;2024-02-26T08:15:08;99017.80;;;11.10
70050;BMP180;57391;51.306;22.680;2024-02-26T08:17:10;99012.20;;;11.20
70050;BMP180;57391;51.306;22.680;2024-02-26T08:19:12;99018.60;;;11.26
70050;BMP180;57391;51.306;22.680;2024-02-26T08:21:16;99016.80;;;11.30
70050;BMP180;57391;51.306;22.680;2024-02-26T08:23:18;99023.20;;;11.30
70050;BMP180;57391;51.306;22.680;2024-02-26T08:25:20;99022.00;;;11.38
70050;BMP180;57391;51.306;22.680;2024-02-26T08:27:21;99027.40;;;11.40
70050;BMP180;57391;51.306;22.680;2024-02-26T08:29:23;99028.00;;;11.40
70050;BMP180;57391;51.306;22.680;2024-02-26T08:31:25;99034.00;;;11.40
70050;BMP180;57391;51.306;22.680;2024-02-26T08:33:27;99028.40;;;11.40
70050;BMP180;57391;51.306;22.680;2024-02-26T08:35:28;99028.40;;;11.50
70050;BMP180;57391;51.306;22.680;2024-02-26T08:37:30;99027.80;;;11.50
70050;BMP180;57391;51.306;22.680;2024-02-26T08:39:32;99026.80;;;11.52
70050;BMP180;57391;51.306;22.680;2024-02-26T08:41:34;99025.00;;;11.58
70050;BMP180;57391;51.306;22.680;2024-02-26T08:43:35;99028.20;;;11.60
70050;BMP180;57391;51.306;22.680;2024-02-26T08:45:37;99022.80;;;11.60
70050;BMP180;57391;51.306;22.680;2024-02-26T08:47:39;99027.80;;;11.60
70050;BMP180;57391;51.306;22.680;2024-02-26T08:49:46;99023.00;;;11.60
70050;BMP180;57391;51.306;22.680;2024-02-26T08:51:48;99025.60;;;11.70
70050;BMP180;57391;51.306;22.680;2024-02-26T08:53:50;99021.40;;;11.70
70050;BMP180;57391;51.306;22.680;2024-02-26T08:55:52;99025.60;;;11.76
70050;BMP180;57391;51.306;22.680;2024-02-26T08:57:54;99024.40;;;11.80
70050;BMP180;57391;51.306;22.680;2024-02-26T08:59:55;99020.20;;;11.80
70050;BMP180;57391;51.306;22.680;2024-02-26T09:01:57;99023.80;;;11.90
70050;BMP180;57391;51.306;22.680;2024-02-26T09:03:59;99024.00;;;12.00
70050;BMP180;57391;51.306;22.680;2024-02-26T09:06:02;99027.80;;;12.10
70050;BMP180;57391;51.306;22.680;2024-02-26T09:08:04;99028.20;;;12.26
70050;BMP180;57391;51.306;22.680;2024-02-26T09:10:06;99025.60;;;12.36
70050;BMP180;57391;51.306;22.680;2024-02-26T09:12:11;99020.60;;;12.52
70050;BMP180;57391;51.306;22.680;2024-02-26T09:14:13;99028.80;;;12.70
70050;BMP180;57391;51.306;22.680;2024-02-26T09:16:15;99026.80;;;12.88
70050;BMP180;57391;51.306;22.680;2024-02-26T09:18:17;99029.40;;;13.00
70050;BMP180;57391;51.306;22.680;2024-02-26T09:20:18;99027.60;;;13.10
70050;BMP180;57391;51.306;22.680;2024-02-26T09:22:21;99025.80;;;13.20
70050;BMP180;57391;51.306;22.680;2024-02-26T09:24:24;99024.40;;;13.20
70050;BMP180;57391;51.306;22.680;2024-02-26T09:26:26;99027.20;;;13.20
70050;BMP180;57391;51.306;22.680;2024-02-26T09:28:27;99026.60;;;13.20
70050;BMP180;57391;51.306;22.680;2024-02-26T09:30:31;99027.60;;;13.20
70050;BMP180;57391;51.306;22.680;2024-02-26T09:32:33;99027.80;;;13.20
70050;BMP180;57391;51.306;22.680;2024-02-26T09:34:35;99030.60;;;13.20
70050;BMP180;57391;51.306;22.680;2024-02-26T09:36:38;99030.00;;;13.20
70050;BMP180;57391;51.306;22.680;2024-02-26T09:38:39;99030.20;;;13.20
70050;BMP180;57391;51.306;22.680;2024-02-26T09:40:41;99030.00;;;13.20
70050;BMP180;57391;51.306;22.680;2024-02-26T09:42:44;99032.60;;;13.28
70050;BMP180;57391;51.306;22.680;2024-02-26T09:44:53;99025.40;;;13.20
70050;BMP180;57391;51.306;22.680;2024-02-26T09:46:55;99025.20;;;13.20
70050;BMP180;57391;51.306;22.680;2024-02-26T09:48:57;99033.40;;;13.10
70050;BMP180;57391;51.306;22.680;2024-02-26T09:51:01;99026.40;;;13.10
70050;BMP180;57391;51.306;22.680;2024-02-26T09:53:04;99032.80;;;13.10
70050;BMP180;57391;51.306;22.680;2024-02-26T09:55:09;99029.20;;;13.10
70050;BMP180;57391;51.306;22.680;2024-02-26T09:57:13;99033.80;;;13.10
70050;BMP180;57391;51.306;22.680;2024-02-26T09:59:18;99037.40;;;13.10
70050;BMP180;57391;51.306;22.680;2024-02-26T10:01:20;99034.80;;;13.18
70050;BMP180;57391;51.306;22.680;2024-02-26T10:03:28;99042.20;;;13.20
70050;BMP180;57391;51.306;22.680;2024-02-26T10:05:34;99041.80;;;13.26
70050;BMP180;57391;51.306;22.680;2024-02-26T10:07:37;99038.80;;;13.30
70050;BMP180;57391;51.306;22.680;2024-02-26T10:09:40;99043.40;;;13.30
70050;BMP180;57391;51.306;22.680;2024-02-26T10:11:43;99043.20;;;13.30
70050;BMP180;57391;51.306;22.680;2024-02-26T10:13:45;99046.20;;;13.26
70050;BMP180;57391;51.306;22.680;2024-02-26T10:15:46;99041.80;;;13.20
70050;BMP180;57391;51.306;22.680;2024-02-26T10:17:48;99048.80;;;13.20
70050;BMP180;57391;51.306;22.680;2024-02-26T10:19:50;99048.00;;;13.20
70050;BMP180;57391;51.306;22.680;2024-02-26T10:21:57;99042.40;;;13.20
70050;BMP180;57391;51.306;22.680;2024-02-26T10:23:59;99044.00;;;13.10
70050;BMP180;57391;51.306;22.680;2024-02-26T10:26:01;99044.60;;;13.10
70050;BMP180;57391;51.306;22.680;2024-02-26T10:28:04;99044.00;;;13.10
70050;BMP180;57391;51.306;22.680;2024-02-26T10:30:20;99044.80;;;13.14
70050;BMP180;57391;51.306;22.680;2024-02-26T10:32:23;99039.80;;;13.18
70050;BMP180;57391;51.306;22.680;2024-02-26T10:34:26;99038.20;;;13.20
70050;BMP180;57391;51.306;22.680;2024-02-26T10:36:28;99040.20;;;13.20
70050;BMP180;57391;51.306;22.680;2024-02-26T10:38:30;99042.00;;;13.20
70050;BMP180;57391;51.306;22.680;2024-02-26T10:40:31;99046.80;;;13.30
70050;BMP180;57391;51.306;22.680;2024-02-26T10:42:33;99046.00;;;13.32
70050;BMP180;57391;51.306;22.680;2024-02-26T10:44:35;99041.80;;;13.40
70050;BMP180;57391;51.306;22.680;2024-02-26T10:46:37;99044.80;;;13.40
70050;BMP180;57391;51.306;22.680;2024-02-26T10:48:39;99045.00;;;13.50
70050;BMP180;57391;51.306;22.680;2024-02-26T10:50:41;99037.20;;;13.60
70050;BMP180;57391;51.306;22.680;2024-02-26T10:52:43;99039.20;;;13.70
70050;BMP180;57391;51.306;22.680;2024-02-26T10:54:47;99037.00;;;13.80
70050;BMP180;57391;51.306;22.680;2024-02-26T10:56:50;99036.40;;;13.90
70050;BMP180;57391;51.306;22.680;2024-02-26T10:58:52;99040.60;;;14.00
70050;BMP180;57391;51.306;22.680;2024-02-26T11:00:56;99035.40;;;14.10
70050;BMP180;57391;51.306;22.680;2024-02-26T11:02:59;99041.00;;;14.10
70050;BMP180;57391;51.306;22.680;2024-02-26T11:05:06;99041.20;;;14.10
70050;BMP180;57391;51.306;22.680;2024-02-26T11:07:09;99041.20;;;14.14
70050;BMP180;57391;51.306;22.680;2024-02-26T11:09:14;99049.20;;;14.20
70050;BMP180;57391;51.306;22.680;2024-02-26T11:11:20;99040.80;;;14.12
70050;BMP180;57391;51.306;22.680;2024-02-26T11:13:27;99039.40;;;14.12
70050;BMP180;57391;51.306;22.680;2024-02-26T11:15:32;99038.00;;;14.20
70050;BMP180;57391;51.306;22.680;2024-02-26T11:17:36;99040.00;;;14.20
70050;BMP180;57391;51.306;22.680;2024-02-26T11:19:42;99039.80;;;14.20
70050;BMP180;57391;51.306;22.680;2024-02-26T11:21:44;99037.80;;;14.20
70050;BMP180;57391;51.306;22.680;2024-02-26T11:23:47;99032.20;;;14.20
70050;BMP180;57391;51.306;22.680;2024-02-26T11:25:56;99033.60;;;14.20
70050;BMP180;57391;51.306;22.680;2024-02-26T11:28:06;99039.40;;;14.20
70050;BMP180;57391;51.306;22.680;2024-02-26T11:30:13;99037.60;;;14.20
70050;BMP180;57391;51.306;22.680;2024-02-26T11:32:15;99033.40;;;14.22
70050;BMP180;57391;51.306;22.680;2024-02-26T11:34:18;99030.40;;;14.30
70050;BMP180;57391;51.306;22.680;2024-02-26T11:36:20;99028.20;;;14.30